Time;durP1;ratioP1;P1;durP2;ratioP2;P2;SDS_P1;SDS_P2;PMS_P1;PMS_P2;Temp;Humidity;BMP_temperature;BMP_pressure;BME280_temperature;BME280_humidity;BME280_pressure;Samples;Min_cycle;Max_cycle;Signal;HPM_P1;HPM_P2
2021/08/12 00:01:05;;;;;;;14.35;13.15;;;18.10;77.40;;;;;;5049783;29;20041;-66
2021/08/12 00:03:37;;;;;;;14.70;13.50;;;18.10;77.30;;;;;;5049053;29;20116;-66
2021/08/12 00:06:09;;;;;;;14.88;13.57;;;18.10;77.10;;;;;;5048102;29;20972;-67
2021/08/12 00:08:41;;;;;;;14.95;13.43;;;18.10;77.10;;;;;;5034125;29;20148;-67
2021/08/12 00:11:12;;;;;;;14.32;12.98;;;18.00;77.30;;;;;;5053011;29;20143;-66
2021/08/12 00:13:44;;;;;;;14.75;13.25;;;17.90;77.60;;;;;;5048794;29;20139;-66
2021/08/12 00:16:16;;;;;;;15.02;13.50;;;17.90;77.80;;;;;;5032259;29;21073;-66
2021/08/12 00:18:55;;;;;;;14.98;13.57;;;17.90;77.80;;;;;;5051523;29;20048;-66
2021/08/12 00:21:27;;;;;;;14.68;13.38;;;17.80;78.50;;;;;;5049610;29;20055;-65
2021/08/12 00:23:59;;;;;;;14.88;13.50;;;17.80;78.20;;;;;;5047171;29;20064;-66
2021/08/12 00:26:31;;;;;;;15.32;13.82;;;17.80;78.20;;;;;;5050215;29;20041;-67
2021/08/12 00:29:04;;;;;;;15.35;13.85;;;17.70;78.60;;;;;;5050489;29;20538;-66
2021/08/12 00:31:37;;;;;;;15.10;13.68;;;17.80;78.30;;;;;;5050506;29;20076;-67
2021/08/12 00:34:09;;;;;;;14.98;13.50;;;17.80;78.30;;;;;;5039652;29;20052;-66
2021/08/12 00:36:41;;;;;;;19.00;14.15;;;17.70;78.20;;;;;;5041327;29;20044;-67
2021/08/12 00:39:14;;;;;;;14.77;13.48;;;17.80;78.70;;;;;;5036848;29;20056;-65
2021/08/12 00:41:47;;;;;;;15.30;13.73;;;17.80;78.70;;;;;;5036168;29;20092;-67
2021/08/12 00:44:20;;;;;;;15.25;13.73;;;17.70;79.10;;;;;;5030759;29;20053;-66
2021/08/12 00:46:52;;;;;;;14.90;13.68;;;17.70;78.70;;;;;;5032239;29;20455;-65
2021/08/12 00:49:24;;;;;;;16.08;13.25;;;17.70;78.50;;;;;;5032225;29;20581;-65
2021/08/12 00:52:00;;;;;;;14.68;13.38;;;17.60;78.20;;;;;;5033645;29;20052;-67
2021/08/12 00:54:35;;;;;;;14.68;13.23;;;17.60;77.90;;;;;;5041287;29;20053;-68
2021/08/12 00:57:09;;;;;;;13.85;12.45;;;17.70;78.10;;;;;;5046000;29;20049;-66
2021/08/12 00:59:42;;;;;;;14.73;13.32;;;17.60;78.90;;;;;;5023728;29;20049;-67
2021/08/12 01:02:15;;;;;;;14.85;13.45;;;17.60;78.80;;;;;;5045764;29;20060;-67
2021/08/12 01:04:52;;;;;;;15.05;13.65;;;17.50;79.10;;;;;;5046491;29;20168;-67
2021/08/12 01:07:39;;;;;;;15.05;13.75;;;17.50;79.90;;;;;;5028378;29;20055;-67
2021/08/12 01:10:33;;;;;;;15.30;13.60;;;17.40;79.70;;;;;;5039801;29;20045;-66
2021/08/12 01:13:27;;;;;;;15.55;14.07;;;17.50;79.10;;;;;;5039650;29;20048;-66
2021/08/12 01:16:05;;;;;;;15.35;13.85;;;17.40;79.10;;;;;;5033196;29;20214;-66
2021/08/12 01:19:02;;;;;;;15.00;13.68;;;17.40;79.60;;;;;;5037154;29;20048;-66
2021/08/12 01:21:46;;;;;;;15.18;13.70;;;17.40;79.20;;;;;;5030156;29;20552;-66
2021/08/12 01:24:21;;;;;;;15.57;13.98;;;17.40;79.90;;;;;;5049708;29;20703;-66
2021/08/12 01:27:01;;;;;;;15.38;13.98;;;17.30;80.00;;;;;;5048797;29;20053;-66
2021/08/12 01:29:46;;;;;;;16.15;14.52;;;17.30;80.00;;;;;;5033636;29;20055;-66
2021/08/12 01:32:41;;;;;;;15.57;14.20;;;17.30;79.70;;;;;;5033917;29;20041;-66
2021/08/12 01:35:17;;;;;;;14.85;13.35;;;17.30;79.40;;;;;;5039060;29;20459;-67
2021/08/12 01:37:58;;;;;;;15.30;13.98;;;17.30;79.20;;;;;;5053481;29;20060;-67
2021/08/12 01:40:34;;;;;;;15.38;13.73;;;17.30;79.80;;;;;;5036403;29;20048;-67
2021/08/12 01:43:15;;;;;;;15.55;14.05;;;17.30;79.70;;;;;;5033721;29;20128;-65
2021/08/12 01:45:50;;;;;;;16.17;14.57;;;17.30;80.10;;;;;;5034502;29;20420;-67
2021/08/12 01:48:24;;;;;;;14.65;13.30;;;17.20;80.60;;;;;;5051412;29;20052;-65
2021/08/12 01:50:57;;;;;;;15.40;13.98;;;17.10;80.40;;;;;;5029425;29;20052;-66
2021/08/12 01:53:31;;;;;;;15.25;13.82;;;17.10;80.10;;;;;;5046376;29;20124;-66
2021/08/12 01:56:06;;;;;;;14.65;13.25;;;17.00;80.00;;;;;;5031879;29;20045;-66
2021/08/12 01:58:38;;;;;;;15.48;13.95;;;17.10;79.90;;;;;;5031298;29;20062;-65
2021/08/12 02:01:11;;;;;;;15.23;13.45;;;17.00;80.30;;;;;;5044695;29;20061;-65
2021/08/12 02:03:45;;;;;;;15.55;14.05;;;17.00;81.40;;;;;;5037292;29;20109;-66
2021/08/12 02:06:20;;;;;;;15.65;14.15;;;17.00;80.80;;;;;;5033190;29;20076;-68
2021/08/12 02:08:52;;;;;;;15.30;13.82;;;16.90;81.40;;;;;;5034415;29;20053;-66
2021/08/12 02:11:24;;;;;;;14.85;13.65;;;17.00;80.90;;;;;;5047006;29;20055;-66
2021/08/12 02:13:56;;;;;;;14.90;13.50;;;17.00;81.10;;;;;;5047135;29;20052;-66
2021/08/12 02:16:28;;;;;;;14.80;13.50;;;17.00;80.60;;;;;;5033335;29;20060;-66
2021/08/12 02:19:03;;;;;;;15.57;13.93;;;17.00;80.30;;;;;;5039098;29;20059;-66
2021/08/12 02:21:46;;;;;;;15.95;14.57;;;16.90;80.50;;;;;;5033159;29;20036;-66
2021/08/12 02:24:42;;;;;;;14.93;13.63;;;16.90;80.50;;;;;;5044844;29;20170;-67
2021/08/12 02:27:18;;;;;;;15.45;14.05;;;16.90;80.10;;;;;;5046978;29;20048;-66
2021/08/12 02:29:52;;;;;;;14.43;13.23;;;16.90;81.00;;;;;;5048057;29;20100;-67
2021/08/12 02:32:30;;;;;;;14.48;13.15;;;16.90;81.10;;;;;;5042793;29;20032;-66
2021/08/12 02:35:06;;;;;;;15.23;13.83;;;16.90;80.40;;;;;;5051179;29;20057;-67
2021/08/12 02:37:39;;;;;;;14.98;13.43;;;16.90;80.20;;;;;;5033018;29;20297;-66
2021/08/12 02:40:11;;;;;;;15.82;14.18;;;16.90;81.00;;;;;;5033851;29;20057;-65
2021/08/12 02:42:44;;;;;;;14.90;13.60;;;16.80;81.20;;;;;;5048784;29;20085;-65
2021/08/12 02:45:17;;;;;;;15.35;14.02;;;16.80;81.30;;;;;;5017566;29;20128;-68
2021/08/12 02:47:51;;;;;;;15.25;13.85;;;16.80;81.20;;;;;;5044943;29;20100;-67
2021/08/12 02:50:24;;;;;;;15.07;13.68;;;16.80;81.80;;;;;;5040334;29;20130;-66
2021/08/12 02:52:57;;;;;;;14.52;13.23;;;16.80;81.60;;;;;;5045130;29;20056;-66
2021/08/12 02:55:30;;;;;;;14.98;13.57;;;16.70;82.30;;;;;;5045899;29;20139;-67
2021/08/12 02:58:04;;;;;;;15.13;13.73;;;16.70;82.00;;;;;;5032808;29;20531;-68
2021/08/12 03:00:38;;;;;;;14.70;13.30;;;16.70;81.90;;;;;;5039443;29;20049;-67
2021/08/12 03:03:13;;;;;;;14.70;13.40;;;16.70;82.20;;;;;;5035584;29;20064;-66
2021/08/12 03:05:46;;;;;;;15.27;13.65;;;16.70;81.70;;;;;;5033991;29;20045;-67
2021/08/12 03:08:20;;;;;;;14.57;13.27;;;16.60;81.80;;;;;;5043962;29;20049;-68
2021/08/12 03:10:54;;;;;;;14.88;13.57;;;16.50;81.50;;;;;;5033391;29;20566;-67
2021/08/12 03:13:26;;;;;;;14.45;13.13;;;16.50;81.70;;;;;;5047299;29;20469;-67
2021/08/12 03:15:59;;;;;;;14.43;13.18;;;16.50;81.10;;;;;;5050548;29;20056;-66
2021/08/12 03:18:32;;;;;;;14.77;13.38;;;16.40;81.20;;;;;;5032550;29;20057;-67
2021/08/12 03:21:06;;;;;;;15.38;13.57;;;16.40;81.20;;;;;;5039491;29;20074;-66
2021/08/12 03:23:40;;;;;;;13.73;12.45;;;16.40;81.00;;;;;;5048728;29;20412;-67
2021/08/12 03:26:12;;;;;;;14.88;13.38;;;16.40;81.90;;;;;;5036941;29;20511;-66
2021/08/12 03:28:44;;;;;;;14.20;12.98;;;16.30;82.40;;;;;;5051331;29;20052;-66
2021/08/12 03:31:16;;;;;;;13.70;12.50;;;16.30;82.00;;;;;;5046255;29;20095;-66
2021/08/12 03:33:48;;;;;;;14.43;13.00;;;16.30;81.50;;;;;;5050111;29;20155;-67
2021/08/12 03:36:21;;;;;;;14.65;13.23;;;16.30;82.40;;;;;;5052658;29;20056;-67
2021/08/12 03:38:53;;;;;;;15.10;13.80;;;16.30;82.60;;;;;;5051056;29;20197;-66
2021/08/12 03:41:25;;;;;;;14.68;13.10;;;16.30;82.60;;;;;;5049648;29;20471;-67
2021/08/12 03:43:57;;;;;;;14.32;13.02;;;16.20;81.70;;;;;;5037791;29;20072;-67
2021/08/12 03:46:29;;;;;;;14.40;13.00;;;16.30;82.20;;;;;;5022013;29;20053;-68
2021/08/12 03:49:03;;;;;;;14.02;12.82;;;16.30;82.50;;;;;;5049926;29;20124;-67
2021/08/12 03:51:35;;;;;;;14.82;12.98;;;16.20;82.60;;;;;;5051603;29;20469;-67
2021/08/12 03:54:08;;;;;;;14.48;13.18;;;16.20;82.00;;;;;;5032249;29;20483;-67
2021/08/12 03:56:41;;;;;;;14.07;12.77;;;16.10;82.30;;;;;;5020245;29;20135;-67
2021/08/12 03:59:13;;;;;;;14.25;12.95;;;16.10;82.40;;;;;;5020026;29;20116;-66
2021/08/12 04:01:45;;;;;;;14.52;13.02;;;16.10;82.10;;;;;;5031535;29;20057;-67
2021/08/12 04:04:17;;;;;;;14.68;13.32;;;16.10;82.00;;;;;;5041464;29;20049;-67
2021/08/12 04:06:50;;;;;;;13.43;12.13;;;16.10;83.10;;;;;;5037671;29;20048;-68
2021/08/12 04:09:22;;;;;;;14.48;13.20;;;16.10;82.60;;;;;;5049094;29;20048;-69
2021/08/12 04:11:54;;;;;;;13.80;12.60;;;16.10;82.10;;;;;;5042624;29;20048;-69
2021/08/12 04:14:26;;;;;;;13.77;12.48;;;16.10;82.60;;;;;;5030119;29;20534;-67
2021/08/12 04:16:58;;;;;;;14.48;13.07;;;16.10;83.10;;;;;;5052798;29;20087;-66
2021/08/12 04:19:31;;;;;;;14.35;13.02;;;16.00;82.70;;;;;;5026811;29;20147;-66
2021/08/12 04:22:04;;;;;;;13.45;12.25;;;16.00;82.70;;;;;;5035276;29;20048;-67
2021/08/12 04:24:36;;;;;;;13.77;12.48;;;16.00;82.30;;;;;;5036716;29;20056;-66
2021/08/12 04:27:08;;;;;;;14.27;12.80;;;16.00;83.10;;;;;;5044905;29;20139;-66
2021/08/12 04:29:41;;;;;;;14.52;13.13;;;16.00;83.40;;;;;;5042173;29;20515;-66
2021/08/12 04:32:14;;;;;;;14.02;12.63;;;16.00;82.40;;;;;;5037126;29;20052;-66
2021/08/12 04:34:45;;;;;;;13.98;12.75;;;16.00;83.00;;;;;;5039747;29;20040;-69
2021/08/12 04:37:17;;;;;;;14.50;12.82;;;16.00;82.30;;;;;;5032310;29;20048;-67
2021/08/12 04:39:49;;;;;;;13.95;12.63;;;16.00;82.00;;;;;;5050447;29;20547;-69
2021/08/12 04:42:21;;;;;;;13.90;12.50;;;16.00;81.60;;;;;;5047423;29;20653;-66
2021/08/12 04:44:53;;;;;;;13.98;12.63;;;16.00;81.50;;;;;;5041511;29;20053;-66
2021/08/12 04:47:25;;;;;;;13.40;12.10;;;15.90;82.00;;;;;;5046612;29;20156;-66
2021/08/12 04:49:57;;;;;;;13.70;12.40;;;15.90;82.00;;;;;;5038632;29;20090;-68
2021/08/12 04:52:29;;;;;;;14.05;12.70;;;16.00;82.50;;;;;;5050421;29;20751;-69
2021/08/12 04:55:02;;;;;;;15.38;13.13;;;16.00;82.30;;;;;;5046394;29;20606;-68
2021/08/12 04:57:34;;;;;;;13.90;12.60;;;16.10;82.60;;;;;;5037091;29;20691;-66
2021/08/12 05:00:07;;;;;;;13.95;12.55;;;16.10;82.10;;;;;;5048560;29;20135;-68
2021/08/12 05:02:39;;;;;;;14.38;12.93;;;16.20;82.00;;;;;;5032958;29;20452;-67
2021/08/12 05:05:11;;;;;;;13.25;11.95;;;16.30;82.20;;;;;;5034098;29;20722;-68
2021/08/12 05:07:43;;;;;;;13.13;11.93;;;16.30;81.90;;;;;;5041091;29;20049;-68
2021/08/12 05:10:16;;;;;;;12.82;11.68;;;16.40;82.30;;;;;;5049527;29;20052;-68
2021/08/12 05:12:52;;;;;;;14.40;13.02;;;16.50;81.90;;;;;;5041618;29;20132;-68
2021/08/12 05:15:24;;;;;;;14.05;12.75;;;16.70;82.40;;;;;;5031546;29;20829;-67
2021/08/12 05:17:56;;;;;;;14.07;12.65;;;16.80;82.50;;;;;;5032287;29;20059;-67
2021/08/12 05:20:28;;;;;;;13.43;12.05;;;16.90;82.10;;;;;;5046136;29;20044;-67
2021/08/12 05:23:01;;;;;;;13.75;12.45;;;16.90;81.90;;;;;;5030474;29;20124;-69
2021/08/12 05:25:33;;;;;;;13.98;12.55;;;17.10;81.80;;;;;;5047847;29;20074;-68
2021/08/12 05:28:06;;;;;;;14.02;12.68;;;17.20;81.50;;;;;;5029386;29;20504;-67
2021/08/12 05:30:38;;;;;;;14.32;12.93;;;17.30;80.70;;;;;;5046231;29;20041;-67
2021/08/12 05:33:11;;;;;;;13.70;12.30;;;17.40;80.60;;;;;;5033197;29;20404;-67
2021/08/12 05:35:43;;;;;;;13.90;12.50;;;17.50;81.20;;;;;;5046181;29;20063;-66
2021/08/12 05:38:16;;;;;;;13.07;11.77;;;17.50;81.10;;;;;;5047051;29;20112;-67
2021/08/12 05:40:48;;;;;;;12.93;11.73;;;17.70;81.30;;;;;;5039571;29;20037;-69
2021/08/12 05:43:20;;;;;;;14.63;13.23;;;17.80;81.00;;;;;;5051390;29;20127;-68
2021/08/12 05:45:53;;;;;;;13.75;12.48;;;17.90;80.90;;;;;;5020202;29;20092;-67
2021/08/12 05:48:24;;;;;;;14.20;12.85;;;18.00;81.60;;;;;;5035354;29;20056;-67
2021/08/12 05:50:56;;;;;;;14.30;12.98;;;18.00;81.10;;;;;;5028849;29;20139;-66
2021/08/12 05:53:30;;;;;;;14.20;12.75;;;18.20;81.80;;;;;;5039050;29;20422;-66
2021/08/12 05:56:02;;;;;;;13.88;12.68;;;18.20;81.30;;;;;;5047648;29;20139;-68
2021/08/12 05:58:38;;;;;;;13.27;12.18;;;18.40;80.60;;;;;;5034800;29;20697;-67
2021/08/12 06:01:10;;;;;;;14.75;13.35;;;18.50;80.20;;;;;;5028912;29;20049;-66
2021/08/12 06:03:42;;;;;;;14.88;13.43;;;18.60;80.60;;;;;;5046428;29;20044;-67
2021/08/12 06:06:15;;;;;;;14.75;13.40;;;18.70;80.00;;;;;;5039140;29;20036;-67
2021/08/12 06:08:47;;;;;;;14.02;12.73;;;18.70;80.30;;;;;;5030565;29;20164;-68
2021/08/12 06:11:18;;;;;;;14.00;12.70;;;18.80;81.00;;;;;;5028394;29;20089;-70
2021/08/12 06:13:51;;;;;;;15.05;13.60;;;18.90;82.10;;;;;;5038193;29;20045;-67
2021/08/12 06:16:23;;;;;;;13.60;12.40;;;18.90;81.30;;;;;;5032510;29;20124;-67
2021/08/12 06:18:55;;;;;;;14.55;12.75;;;19.10;80.90;;;;;;5036815;29;20056;-66
2021/08/12 06:21:28;;;;;;;14.18;12.90;;;19.30;81.00;;;;;;5028041;29;20056;-67
2021/08/12 06:23:59;;;;;;;15.02;13.73;;;19.50;80.90;;;;;;5037108;29;20293;-66
2021/08/12 06:26:32;;;;;;;15.55;14.00;;;19.60;79.50;;;;;;5033569;29;20530;-68
2021/08/12 06:29:04;;;;;;;16.58;13.13;;;19.70;79.40;;;;;;5049166;29;20045;-67
2021/08/12 06:31:37;;;;;;;15.00;13.70;;;19.90;78.30;;;;;;5037490;29;20045;-67
2021/08/12 06:34:09;;;;;;;14.50;13.13;;;20.00;78.30;;;;;;5046659;29;20059;-66
2021/08/12 06:36:41;;;;;;;14.50;13.20;;;20.10;78.00;;;;;;5032437;29;20569;-66
2021/08/12 06:39:13;;;;;;;14.82;13.55;;;20.10;76.60;;;;;;5032531;29;20053;-67
2021/08/12 06:41:46;;;;;;;15.30;13.85;;;20.30;78.80;;;;;;5046696;29;20769;-67
2021/08/12 06:44:21;;;;;;;14.80;13.48;;;20.40;74.60;;;;;;5047315;29;20045;-66
2021/08/12 06:46:53;;;;;;;15.15;13.95;;;20.50;73.70;;;;;;5024951;29;20055;-66
2021/08/12 06:49:26;;;;;;;15.13;13.90;;;20.60;74.90;;;;;;5031066;29;20053;-67
2021/08/12 06:51:58;;;;;;;14.88;13.68;;;20.60;73.90;;;;;;5032641;29;20049;-66
2021/08/12 06:54:31;;;;;;;15.80;14.30;;;20.80;73.90;;;;;;5036226;29;20053;-67
2021/08/12 06:57:03;;;;;;;15.43;14.13;;;20.90;73.40;;;;;;5032318;29;20104;-68
2021/08/12 06:59:35;;;;;;;15.05;13.73;;;21.00;73.20;;;;;;5039107;29;20053;-66
2021/08/12 07:02:07;;;;;;;16.05;14.75;;;21.20;73.80;;;;;;5047756;29;20072;-66
2021/08/12 07:04:39;;;;;;;15.68;14.38;;;21.30;72.20;;;;;;5045065;29;20510;-68
2021/08/12 07:07:12;;;;;;;15.27;14.07;;;21.40;72.90;;;;;;5033766;29;20163;-66
2021/08/12 07:09:44;;;;;;;15.85;14.50;;;21.50;72.30;;;;;;5038447;29;20053;-66
2021/08/12 07:12:16;;;;;;;16.70;15.20;;;21.70;72.10;;;;;;5038338;29;20474;-67
2021/08/12 07:14:48;;;;;;;16.20;14.90;;;21.80;75.30;;;;;;5046465;29;20049;-69
2021/08/12 07:17:21;;;;;;;16.55;15.05;;;21.90;72.80;;;;;;5034285;29;20049;-67
2021/08/12 07:19:54;;;;;;;16.52;15.07;;;22.00;74.20;;;;;;5045518;29;20048;-66
2021/08/12 07:22:26;;;;;;;15.90;14.55;;;22.20;74.20;;;;;;5047175;29;20511;-67
2021/08/12 07:25:01;;;;;;;16.50;15.10;;;22.30;75.70;;;;;;5018588;29;20052;-67
2021/08/12 07:27:33;;;;;;;17.30;15.80;;;22.40;72.00;;;;;;5033959;29;20072;-68
2021/08/12 07:30:07;;;;;;;16.10;14.85;;;22.50;69.60;;;;;;5043919;29;20136;-67
2021/08/12 07:32:39;;;;;;;16.95;15.55;;;22.60;74.10;;;;;;5040209;29;20108;-67
2021/08/12 07:35:11;;;;;;;16.40;14.95;;;22.60;74.00;;;;;;5035792;29;20147;-66
2021/08/12 07:37:46;;;;;;;16.13;14.73;;;22.80;71.40;;;;;;5034475;29;20056;-68
2021/08/12 07:40:18;;;;;;;15.85;14.63;;;22.80;70.50;;;;;;5035277;29;20064;-69
2021/08/12 07:42:50;;;;;;;16.67;15.35;;;22.90;68.70;;;;;;5037461;29;20418;-67
2021/08/12 07:45:23;;;;;;;16.48;15.02;;;23.00;72.20;;;;;;5046740;29;20793;-67
2021/08/12 07:47:55;;;;;;;15.98;14.75;;;23.20;72.20;;;;;;5032353;29;20049;-69
2021/08/12 07:50:27;;;;;;;16.45;15.05;;;23.30;72.40;;;;;;5045946;29;20145;-67
2021/08/12 07:52:59;;;;;;;17.60;16.15;;;23.30;68.90;;;;;;5048302;29;20578;-67
2021/08/12 07:55:31;;;;;;;16.40;15.00;;;23.50;69.40;;;;;;5051036;29;20055;-67
2021/08/12 07:58:03;;;;;;;16.67;15.07;;;23.60;67.50;;;;;;5051099;29;20421;-68
2021/08/12 08:00:35;;;;;;;16.70;15.40;;;23.70;65.70;;;;;;5039657;29;20064;-67
2021/08/12 08:03:07;;;;;;;16.55;15.25;;;23.60;64.70;;;;;;5049150;29;20527;-67
2021/08/12 08:05:39;;;;;;;16.05;14.75;;;23.70;67.20;;;;;;5048589;29;20444;-67
2021/08/12 08:08:11;;;;;;;15.80;14.60;;;23.70;65.10;;;;;;5033023;29;20105;-67
2021/08/12 08:10:43;;;;;;;17.33;15.85;;;23.90;65.60;;;;;;5054003;29;20485;-67
2021/08/12 08:13:20;;;;;;;17.15;15.75;;;24.00;66.30;;;;;;5049387;29;20057;-67
2021/08/12 08:15:52;;;;;;;17.05;15.77;;;24.10;67.30;;;;;;5047569;29;20147;-67
2021/08/12 08:18:26;;;;;;;16.52;15.30;;;24.30;66.20;;;;;;5050596;29;20103;-67
2021/08/12 08:20:58;;;;;;;17.08;15.63;;;24.40;67.40;;;;;;5045044;29;20044;-68
2021/08/12 08:23:30;;;;;;;16.70;15.32;;;24.60;68.30;;;;;;5049992;29;20063;-67
2021/08/12 08:26:02;;;;;;;17.15;15.70;;;24.70;66.00;;;;;;5044299;29;20069;-68
2021/08/12 08:28:34;;;;;;;17.17;15.77;;;24.70;65.50;;;;;;5032285;29;20053;-67
2021/08/12 08:31:07;;;;;;;17.02;15.57;;;24.70;63.30;;;;;;5049224;29;20531;-66
2021/08/12 08:33:39;;;;;;;17.63;16.13;;;24.80;64.50;;;;;;5051699;29;20057;-67
2021/08/12 08:36:11;;;;;;;17.70;16.30;;;24.90;66.30;;;;;;5048103;29;20112;-66
2021/08/12 08:38:43;;;;;;;17.67;16.17;;;25.00;63.70;;;;;;5053072;29;20070;-65
2021/08/12 08:41:15;;;;;;;17.83;16.40;;;25.10;66.10;;;;;;5033606;29;20049;-64
2021/08/12 08:43:50;;;;;;;17.65;16.33;;;25.00;65.30;;;;;;5048665;29;20045;-67
2021/08/12 08:46:23;;;;;;;18.75;17.30;;;25.10;64.70;;;;;;5051226;29;20076;-67
2021/08/12 08:48:59;;;;;;;17.60;16.20;;;25.30;64.60;;;;;;5041382;29;20567;-66
2021/08/12 08:51:35;;;;;;;18.00;16.42;;;25.40;63.60;;;;;;5047707;29;20167;-68
2021/08/12 08:54:11;;;;;;;18.67;17.10;;;25.40;62.30;;;;;;5049115;29;20679;-65
2021/08/12 08:56:45;;;;;;;17.60;16.13;;;25.50;60.20;;;;;;5049224;29;20695;-66
2021/08/12 08:59:18;;;;;;;18.77;17.38;;;25.50;59.60;;;;;;5034193;29;20128;-65
2021/08/12 09:01:50;;;;;;;18.77;17.27;;;25.50;61.70;;;;;;5049209;29;20515;-65
2021/08/12 09:04:22;;;;;;;18.45;17.00;;;25.60;64.90;;;;;;5044116;29;20444;-66
2021/08/12 09:06:54;;;;;;;19.15;17.38;;;25.60;58.10;;;;;;5047958;29;20044;-67
2021/08/12 09:09:26;;;;;;;18.08;16.58;;;25.70;60.80;;;;;;5050600;29;20447;-68
2021/08/12 09:11:59;;;;;;;17.95;16.45;;;25.80;61.40;;;;;;5048115;29;20128;-68
2021/08/12 09:14:42;;;;;;;18.10;16.70;;;25.90;63.10;;;;;;5046704;29;21090;-69
2021/08/12 09:17:17;;;;;;;18.60;17.20;;;26.00;63.30;;;;;;5035457;29;20587;-66
2021/08/12 09:20:19;;;;;;;18.83;17.33;;;26.10;61.50;;;;;;5047392;29;20048;-66
2021/08/12 09:22:54;;;;;;;17.95;16.60;;;26.20;59.80;;;;;;5045066;29;20140;-66
2021/08/12 09:25:41;;;;;;;18.08;16.58;;;26.30;61.70;;;;;;5047764;29;20196;-66
2021/08/12 09:28:18;;;;;;;18.58;16.88;;;26.30;60.20;;;;;;5049841;29;20455;-66
2021/08/12 09:30:59;;;;;;;18.50;17.00;;;26.40;60.40;;;;;;5049833;29;20048;-66
2021/08/12 09:33:43;;;;;;;18.75;17.25;;;26.50;60.20;;;;;;5046077;29;20459;-67
2021/08/12 09:36:23;;;;;;;18.80;17.23;;;26.60;56.30;;;;;;5050701;29;20049;-67
2021/08/12 09:39:22;;;;;;;;;;;26.60;59.40;;;;;;5049812;29;20524;-68
2021/08/12 09:41:55;;;;;;;;;;;26.70;60.40;;;;;;5046687;29;19928;-66
2021/08/12 09:44:52;;;;;;;18.13;16.63;;;26.80;59.60;;;;;;5048957;29;20350;-66
2021/08/12 09:47:28;;;;;;;18.70;16.88;;;26.80;58.50;;;;;;5043950;29;20048;-65
2021/08/12 09:50:00;;;;;;;18.42;17.02;;;26.80;57.50;;;;;;5047922;29;20696;-66
2021/08/12 09:52:35;;;;;;;19.17;17.67;;;26.90;59.40;;;;;;5045484;29;20080;-68
2021/08/12 09:55:18;;;;;;;19.65;18.05;;;27.00;56.90;;;;;;5049805;29;20507;-66
2021/08/12 09:58:06;;;;;;;18.52;16.83;;;27.00;59.70;;;;;;5021104;29;21097;-66
2021/08/12 10:00:47;;;;;;;19.20;17.67;;;27.00;59.00;;;;;;5048705;29;20088;-66
2021/08/12 10:03:31;;;;;;;18.95;17.42;;;27.20;57.50;;;;;;5047388;29;20067;-66
2021/08/12 10:06:04;;;;;;;19.88;18.17;;;27.20;59.70;;;;;;5045630;29;20052;-67
2021/08/12 10:08:38;;;;;;;20.08;18.48;;;27.20;57.30;;;;;;5045718;29;20719;-66
2021/08/12 10:11:27;;;;;;;19.75;18.25;;;27.30;57.80;;;;;;5048882;29;20465;-66
2021/08/12 10:14:04;;;;;;;;;;;27.40;59.30;;;;;;5046807;29;20049;-66
2021/08/12 10:16:38;;;;;;;19.17;17.67;;;27.50;59.30;;;;;;5035361;29;19923;-66
2021/08/12 10:19:14;;;;;;;20.40;18.75;;;27.50;57.60;;;;;;5044882;29;20687;-66
2021/08/12 10:21:47;;;;;;;19.80;18.00;;;27.50;59.10;;;;;;5048639;29;20467;-68
2021/08/12 10:24:20;;;;;;;19.75;18.17;;;27.60;57.80;;;;;;5045914;29;20069;-67
2021/08/12 10:26:55;;;;;;;20.02;18.42;;;27.60;56.90;;;;;;5048630;29;20051;-65
2021/08/12 10:29:28;;;;;;;20.13;18.40;;;27.70;57.00;;;;;;5051433;29;20156;-67
2021/08/12 10:32:01;;;;;;;20.00;18.40;;;27.80;57.50;;;;;;5055172;29;20056;-67
2021/08/12 10:34:33;;;;;;;19.88;18.25;;;27.80;57.30;;;;;;5052507;29;21114;-70
2021/08/12 10:37:05;;;;;;;20.85;19.27;;;27.90;57.70;;;;;;5046979;29;20571;-68
2021/08/12 10:39:40;;;;;;;19.45;18.05;;;28.00;58.80;;;;;;5049798;29;20072;-67
2021/08/12 10:42:12;;;;;;;20.50;18.83;;;28.00;57.20;;;;;;5047595;29;20519;-67
2021/08/12 10:44:45;;;;;;;20.65;19.00;;;28.00;59.60;;;;;;5045965;29;20037;-67
2021/08/12 10:47:38;;;;;;;20.70;19.13;;;28.10;57.60;;;;;;5045983;29;20084;-69
2021/08/12 10:50:31;;;;;;;19.92;18.20;;;28.10;57.90;;;;;;5048250;29;20131;-68
2021/08/12 10:53:10;;;;;;;20.35;18.83;;;28.00;57.50;;;;;;5048495;29;20077;-69
2021/08/12 10:55:47;;;;;;;20.30;18.80;;;28.20;58.10;;;;;;5045235;29;20492;-67
2021/08/12 10:58:28;;;;;;;19.70;18.20;;;28.30;53.80;;;;;;5044367;29;20045;-68
2021/08/12 11:01:09;;;;;;;19.83;18.42;;;28.40;55.90;;;;;;5048534;29;20053;-67
2021/08/12 11:03:45;;;;;;;20.05;18.42;;;28.50;57.00;;;;;;5044545;29;20057;-68
2021/08/12 11:06:33;;;;;;;20.13;18.60;;;28.60;56.50;;;;;;5046321;29;20097;-70
2021/08/12 11:09:08;;;;;;;19.88;18.38;;;28.80;54.90;;;;;;5046996;29;20045;-68
2021/08/12 11:11:39;;;;;;;20.95;19.40;;;28.90;56.20;;;;;;5038744;29;20098;-68
2021/08/12 11:14:13;;;;;;;20.90;19.20;;;29.10;58.20;;;;;;5048965;29;20045;-69
2021/08/12 11:16:49;;;;;;;21.15;19.55;;;29.10;54.60;;;;;;5048291;29;20048;-69
2021/08/12 11:19:21;;;;;;;20.45;18.95;;;29.30;53.60;;;;;;5051575;29;20060;-69
2021/08/12 11:21:54;;;;;;;20.58;18.98;;;29.40;52.00;;;;;;5050229;29;20808;-69
2021/08/12 11:24:25;;;;;;;21.15;19.38;;;29.50;52.60;;;;;;5047134;29;20069;-68
2021/08/12 11:26:58;;;;;;;20.17;18.67;;;29.50;52.40;;;;;;5048483;29;20136;-68
2021/08/12 11:29:32;;;;;;;19.90;18.40;;;29.30;51.70;;;;;;5041544;29;20041;-68
2021/08/12 11:32:10;;;;;;;19.33;17.77;;;29.30;50.70;;;;;;5031340;29;20120;-67
2021/08/12 11:34:56;;;;;;;19.90;18.40;;;29.40;52.50;;;;;;5051911;29;20049;-67
2021/08/12 11:37:29;;;;;;;20.20;18.67;;;29.10;51.40;;;;;;5057099;29;20124;-68
2021/08/12 11:40:09;;;;;;;19.55;17.95;;;29.30;51.20;;;;;;5052490;29;20151;-68
2021/08/12 11:42:43;;;;;;;19.88;18.20;;;29.40;49.80;;;;;;5051709;29;20052;-67
2021/08/12 11:45:21;;;;;;;18.95;17.45;;;29.50;48.80;;;;;;5048901;29;20045;-68
2021/08/12 11:47:55;;;;;;;18.90;17.48;;;29.60;47.10;;;;;;5053858;29;20052;-68
2021/08/12 11:50:29;;;;;;;22.25;20.35;;;29.70;48.20;;;;;;5051832;29;20049;-67
2021/08/12 11:53:01;;;;;;;20.02;18.45;;;29.80;49.50;;;;;;5059188;29;20077;-68
2021/08/12 11:55:36;;;;;;;18.95;17.40;;;29.90;48.00;;;;;;5055850;29;20093;-68
2021/08/12 11:58:09;;;;;;;19.13;17.73;;;30.10;47.80;;;;;;5057830;29;20056;-68
2021/08/12 12:00:42;;;;;;;20.65;18.42;;;30.10;48.40;;;;;;5051998;29;20136;-68
2021/08/12 12:03:27;;;;;;;25.98;18.45;;;30.20;45.90;;;;;;5050986;29;20063;-68
2021/08/12 12:05:59;;;;;;;21.30;19.00;;;30.30;47.70;;;;;;5056020;29;20159;-69
2021/08/12 12:08:31;;;;;;;20.23;18.63;;;30.40;47.80;;;;;;5056766;29;20057;-69
2021/08/12 12:11:08;;;;;;;19.30;17.52;;;30.50;46.50;;;;;;5049441;29;20064;-68
2021/08/12 12:13:43;;;;;;;18.95;17.55;;;30.60;47.10;;;;;;5058128;29;20113;-68
2021/08/12 12:16:18;;;;;;;18.98;17.55;;;30.60;40.50;;;;;;5048353;29;20511;-68
2021/08/12 12:18:51;;;;;;;18.92;17.30;;;30.70;41.30;;;;;;5042234;29;20045;-68
2021/08/12 12:21:23;;;;;;;18.70;17.30;;;30.70;40.80;;;;;;5041255;29;20047;-69
2021/08/12 12:23:56;;;;;;;18.67;17.27;;;30.80;41.40;;;;;;5039005;29;20064;-68
2021/08/12 12:26:30;;;;;;;18.98;17.58;;;30.70;41.10;;;;;;5052501;29;20040;-69
2021/08/12 12:29:10;;;;;;;18.85;17.55;;;30.80;41.80;;;;;;5051045;29;20053;-69
2021/08/12 12:31:42;;;;;;;;;;;30.80;40.40;;;;;;5050162;29;20148;-68
2021/08/12 12:34:15;;;;;;;19.20;17.80;;;31.00;42.80;;;;;;5051868;29;19990;-68
2021/08/12 12:36:47;;;;;;;19.75;18.05;;;31.10;43.50;;;;;;5048750;29;20144;-67
2021/08/12 12:39:20;;;;;;;19.13;17.73;;;31.10;43.40;;;;;;5049916;29;20072;-69
2021/08/12 12:42:05;;;;;;;18.48;17.02;;;31.10;41.10;;;;;;5047230;29;20120;-68
2021/08/12 12:44:54;;;;;;;18.85;17.17;;;30.90;41.10;;;;;;5048637;29;20053;-67
2021/08/12 12:47:28;;;;;;;18.38;17.08;;;30.70;39.70;;;;;;5037360;29;20041;-67
2021/08/12 12:50:21;;;;;;;18.90;17.30;;;30.80;41.10;;;;;;5051214;29;20456;-67
2021/08/12 12:53:06;;;;;;;19.20;17.60;;;30.80;40.80;;;;;;5048174;29;20045;-67
2021/08/12 12:55:51;;;;;;;19.58;18.08;;;31.00;39.60;;;;;;5049519;29;20543;-68
2021/08/12 12:58:34;;;;;;;19.00;17.70;;;31.10;42.20;;;;;;5055657;29;20053;-68
2021/08/12 13:01:09;;;;;;;18.77;17.23;;;31.20;42.70;;;;;;5055153;29;20124;-68
2021/08/12 13:03:44;;;;;;;19.73;18.05;;;31.30;39.90;;;;;;5048224;29;20120;-67
2021/08/12 13:06:34;;;;;;;18.20;16.90;;;31.30;39.80;;;;;;5051882;29;20059;-69